createdAt,value
2023-04-17T00:01:08.270Z,61.22
2023-04-17T00:03:36.136Z,60.87
2023-04-17T00:06:04.244Z,61.27
2023-04-17T00:08:32.475Z,61.11
2023-04-17T00:11:07.060Z,61.08
2023-04-17T00:13:35.033Z,62.01
2023-04-17T00:16:03.128Z,61.92
2023-04-17T00:18:30.588Z,61.33
2023-04-17T00:20:58.000Z,61.58
2023-04-17T00:23:26.281Z,62.74
2023-04-17T00:25:53.636Z,62.85
2023-04-17T00:28:21.097Z,62.90
2023-04-17T00:30:48.735Z,62.19
2023-04-17T00:33:16.309Z,62.40
2023-04-17T00:35:43.700Z,62.27
2023-04-17T00:38:11.327Z,61.79
2023-04-17T00:40:38.751Z,61.65
2023-04-17T00:43:07.057Z,62.75
2023-04-17T00:45:36.889Z,62.50
2023-04-17T00:48:06.897Z,61.19
2023-04-17T00:50:35.158Z,63.30
2023-04-17T00:53:02.739Z,62.45
2023-04-17T00:55:31.613Z,63.28
2023-04-17T00:57:59.628Z,63.43
2023-04-17T01:00:27.046Z,64.84
2023-04-17T01:02:57.772Z,63.95
2023-04-17T01:05:27.475Z,62.50
2023-04-17T01:07:58.185Z,64.14
2023-04-17T01:10:25.860Z,64.53
2023-04-17T01:13:04.383Z,65.53
2023-04-17T01:15:33.130Z,64.68
2023-04-17T01:18:00.580Z,64.06
2023-04-17T01:20:31.358Z,62.32
2023-04-17T01:22:59.461Z,63.41
2023-04-17T01:25:28.086Z,64.16
2023-04-17T01:27:56.202Z,63.97
2023-04-17T01:30:24.199Z,64.03
2023-04-17T01:32:55.488Z,63.83
2023-04-17T01:35:23.208Z,63.77
2023-04-17T01:37:51.195Z,63.93
2023-04-17T01:40:18.678Z,64.99
2023-04-17T01:42:46.020Z,64.21
2023-04-17T01:45:13.956Z,63.55
2023-04-17T01:47:41.549Z,63.67
2023-04-17T01:50:09.393Z,63.85
2023-04-17T01:52:37.348Z,65.44
2023-04-17T01:55:04.975Z,64.84
2023-04-17T01:57:33.378Z,65.02
2023-04-17T02:00:01.033Z,64.10
2023-04-17T02:02:28.530Z,64.14
2023-04-17T02:04:56.235Z,64.87
2023-04-17T02:07:23.588Z,63.96
2023-04-17T02:09:50.959Z,65.04
2023-04-17T02:12:19.366Z,64.20
2023-04-17T02:14:46.731Z,63.40
2023-04-17T02:17:14.078Z,64.58
2023-04-17T02:19:41.724Z,63.92
2023-04-17T02:22:09.148Z,64.16
2023-04-17T02:24:36.556Z,62.77
2023-04-17T02:27:04.178Z,61.80
2023-04-17T02:29:31.574Z,61.33
2023-04-17T02:31:58.952Z,61.57
2023-04-17T02:34:27.249Z,61.30
2023-04-17T02:36:54.821Z,60.57
2023-04-17T02:39:23.695Z,61.65
2023-04-17T02:41:51.375Z,60.60
2023-04-17T02:44:18.740Z,61.28
2023-04-17T02:46:46.224Z,60.71
2023-04-17T02:49:14.265Z,60.70
2023-04-17T02:51:41.784Z,60.30
2023-04-17T02:54:09.230Z,59.92
2023-04-17T02:56:36.912Z,59.84
2023-04-17T02:59:04.437Z,61.53
2023-04-17T03:01:34.027Z,59.83
2023-04-17T03:04:01.777Z,60.14
2023-04-17T03:06:30.258Z,60.87
2023-04-17T03:08:57.682Z,60.88
2023-04-17T03:11:25.820Z,60.06
2023-04-17T03:13:53.187Z,61.53
2023-04-17T03:16:22.319Z,60.59
2023-04-17T03:18:50.461Z,60.85
2023-04-17T03:21:17.902Z,60.71
2023-04-17T03:23:45.271Z,61.13
2023-04-17T03:26:13.110Z,60.61
2023-04-17T03:28:40.526Z,62.87
2023-04-17T03:31:07.909Z,61.35
2023-04-17T03:33:37.798Z,61.51
2023-04-17T03:36:06.116Z,60.43
2023-04-17T03:38:35.941Z,59.37
2023-04-17T03:41:04.044Z,58.64
2023-04-17T03:43:31.383Z,59.33
2023-04-17T03:45:58.809Z,58.48
2023-04-17T03:48:26.522Z,57.17
2023-04-17T03:50:53.978Z,58.86
2023-04-17T03:53:21.599Z,57.04
2023-04-17T03:55:50.102Z,57.50
2023-04-17T03:58:20.293Z,58.19
2023-04-17T04:00:48.550Z,57.89
2023-04-17T04:03:16.566Z,56.99
2023-04-17T04:05:44.076Z,58.46
2023-04-17T04:08:11.545Z,59.20
2023-04-17T04:10:39.566Z,58.76
2023-04-17T04:13:07.044Z,57.76
2023-04-17T04:15:35.121Z,59.09
2023-04-17T04:18:03.225Z,56.64
2023-04-17T04:20:32.056Z,57.99
2023-04-17T04:23:03.549Z,57.39
2023-04-17T04:25:32.389Z,58.18
2023-04-17T04:28:01.717Z,57.51
2023-04-17T04:30:35.899Z,57.22
2023-04-17T04:33:06.076Z,58.48
2023-04-17T04:35:34.012Z,58.46
2023-04-17T04:38:02.164Z,57.85
2023-04-17T04:40:36.018Z,58.12
2023-04-17T04:43:04.369Z,57.92
2023-04-17T04:45:33.010Z,59.08
2023-04-17T04:48:01.091Z,59.19
2023-04-17T04:50:29.617Z,59.25
2023-04-17T04:52:57.884Z,59.28
2023-04-17T04:55:26.608Z,60.20
2023-04-17T04:57:54.647Z,60.37
2023-04-17T05:00:23.836Z,59.78
2023-04-17T05:02:51.779Z,59.40
2023-04-17T05:05:20.266Z,59.50
2023-04-17T05:07:47.878Z,59.49
2023-04-17T05:10:15.628Z,59.14
2023-04-17T05:12:44.386Z,59.11
2023-04-17T05:15:13.218Z,59.09
2023-04-17T05:17:41.921Z,59.54
2023-04-17T05:20:16.455Z,59.29
2023-04-17T05:22:45.292Z,59.36
2023-04-17T05:25:12.965Z,59.43
2023-04-17T05:27:40.366Z,59.38
2023-04-17T05:30:08.812Z,59.93
2023-04-17T05:32:38.850Z,60.10
2023-04-17T05:35:08.303Z,59.33
2023-04-17T05:37:36.557Z,60.14
2023-04-17T05:40:06.836Z,60.18
2023-04-17T05:42:34.925Z,60.04
2023-04-17T05:45:02.637Z,59.90
2023-04-17T05:47:30.259Z,59.89
2023-04-17T05:49:58.841Z,60.44
2023-04-17T05:52:28.011Z,60.41
2023-04-17T05:54:56.571Z,59.06
2023-04-17T05:57:24.319Z,57.22
2023-04-17T05:59:52.699Z,57.93
2023-04-17T06:02:20.144Z,56.57
2023-04-17T06:04:48.060Z,52.38
2023-04-17T06:07:16.088Z,53.72
2023-04-17T06:09:43.582Z,53.06
2023-04-17T06:12:15.978Z,52.28
2023-04-17T06:14:43.809Z,51.43
2023-04-17T06:17:12.381Z,50.70
2023-04-17T06:19:39.966Z,51.86
2023-04-17T06:22:07.495Z,50.75
2023-04-17T06:24:36.861Z,51.33
2023-04-17T06:27:04.591Z,50.96
2023-04-17T06:29:32.038Z,50.72
2023-04-17T06:31:59.707Z,51.46
2023-04-17T06:34:27.604Z,51.66
2023-04-17T06:36:55.524Z,50.09
2023-04-17T06:39:23.266Z,49.22
2023-04-17T06:41:50.806Z,50.23
2023-04-17T06:44:24.492Z,51.02
2023-04-17T06:46:53.799Z,48.72
2023-04-17T06:49:21.323Z,49.55
2023-04-17T06:51:49.646Z,49.77
2023-04-17T06:54:17.425Z,48.13
2023-04-17T06:56:44.863Z,47.81
2023-04-17T06:59:12.354Z,46.40
2023-04-17T07:01:40.480Z,46.58
2023-04-17T07:04:09.217Z,46.04
2023-04-17T07:06:37.187Z,46.37
2023-04-17T07:09:05.380Z,47.24
2023-04-17T07:11:32.745Z,46.21
2023-04-17T07:14:00.157Z,46.08
2023-04-17T07:16:27.832Z,45.60
2023-04-17T07:56:46.624Z,45.41
2023-04-17T07:59:14.447Z,44.00
2023-04-17T08:01:42.135Z,44.85
2023-04-17T08:04:10.101Z,44.70
2023-04-17T08:06:37.738Z,44.96
2023-04-17T08:09:05.327Z,44.20
2023-04-17T08:11:42.663Z,44.85
2023-04-17T08:14:20.125Z,43.92
2023-04-17T08:16:48.011Z,44.57
2023-04-17T08:19:15.522Z,44.21
2023-04-17T08:21:42.858Z,43.94
2023-04-17T08:24:10.612Z,44.85
2023-04-17T08:26:37.970Z,44.57
2023-04-17T08:29:05.336Z,44.24
2023-04-17T08:31:34.298Z,43.57
2023-04-17T08:34:12.921Z,45.00
2023-04-17T08:36:42.694Z,44.17
2023-04-17T08:39:12.368Z,43.88
2023-04-17T08:41:47.285Z,44.21
2023-04-17T08:44:20.652Z,44.10
2023-04-17T08:46:48.828Z,43.67
2023-04-17T08:49:16.754Z,43.36
2023-04-17T08:51:44.176Z,43.48
2023-04-17T08:54:12.918Z,43.41
2023-04-17T08:56:40.596Z,43.88
2023-04-17T08:59:07.979Z,42.66
2023-04-17T09:01:35.825Z,43.13
2023-04-17T09:04:03.575Z,42.50
2023-04-17T09:06:49.174Z,42.75
2023-04-17T09:09:16.901Z,42.95
2023-04-17T09:11:44.503Z,43.06
2023-04-17T09:14:30.371Z,43.08
2023-04-17T09:16:58.027Z,42.64
2023-04-17T09:19:25.929Z,42.97
2023-04-17T09:21:54.632Z,43.19
2023-04-17T09:24:41.310Z,43.14
2023-04-17T09:27:22.403Z,43.12
2023-04-17T09:29:58.074Z,41.08
2023-04-17T09:32:26.444Z,42.49
2023-04-17T09:34:56.946Z,42.78
2023-04-17T09:37:24.553Z,43.22
2023-04-17T09:40:00.067Z,43.18
2023-04-17T09:42:28.001Z,42.04
2023-04-17T09:44:55.313Z,42.42
2023-04-17T09:47:22.886Z,42.39
2023-04-17T09:49:52.877Z,40.85
2023-04-17T09:52:23.437Z,41.84
2023-04-17T09:54:53.752Z,42.47
2023-04-17T09:57:21.466Z,42.03
2023-04-17T09:59:49.254Z,42.22
2023-04-17T10:02:18.535Z,41.40
2023-04-17T10:04:47.428Z,39.95
2023-04-17T10:07:16.438Z,40.99
2023-04-17T10:09:46.761Z,41.03
2023-04-17T10:12:18.688Z,40.07
2023-04-17T10:14:48.438Z,41.13
2023-04-17T10:17:28.701Z,39.62
2023-04-17T10:19:56.795Z,40.07
2023-04-17T10:22:24.844Z,40.31
2023-04-17T10:25:15.558Z,38.71
2023-04-17T10:27:46.167Z,38.53
2023-04-17T10:30:14.456Z,40.35
2023-04-17T10:32:44.495Z,40.09
2023-04-17T10:35:17.822Z,41.23
2023-04-17T10:37:53.341Z,39.37
2023-04-17T10:40:25.963Z,39.14
2023-04-17T10:43:05.200Z,40.97
2023-04-17T10:46:07.009Z,39.77
2023-04-17T10:48:38.836Z,39.57
2023-04-17T10:51:21.887Z,40.99
2023-04-17T10:53:51.347Z,41.78
2023-04-17T10:56:24.285Z,40.33
2023-04-17T10:58:57.757Z,41.04
2023-04-17T11:01:28.365Z,41.27
2023-04-17T11:03:59.514Z,41.00
2023-04-17T11:06:28.887Z,40.09
2023-04-17T11:08:58.463Z,42.05
2023-04-17T11:11:40.437Z,41.33
2023-04-17T11:14:16.701Z,41.16
2023-04-17T11:16:46.226Z,40.60
2023-04-17T11:19:19.066Z,41.32
2023-04-17T11:21:49.130Z,42.25
2023-04-17T11:24:27.927Z,42.49
2023-04-17T11:26:57.786Z,43.24
2023-04-17T11:29:26.339Z,40.90
2023-04-17T11:31:55.189Z,41.58
2023-04-17T11:34:23.020Z,43.53
2023-04-17T11:36:51.659Z,42.22
2023-04-17T11:39:20.621Z,41.99
2023-04-17T11:41:48.135Z,40.90
2023-04-17T11:44:17.973Z,40.46
2023-04-17T11:46:54.623Z,43.00
2023-04-17T11:49:29.643Z,41.59
2023-04-17T11:51:59.943Z,41.72
2023-04-17T11:54:28.600Z,40.51
2023-04-17T11:57:22.146Z,40.03
2023-04-17T11:59:50.005Z,40.07
2023-04-17T12:02:17.479Z,40.26
2023-04-17T12:04:45.320Z,41.69
2023-04-17T12:07:21.736Z,41.54
2023-04-17T12:09:57.544Z,40.75
2023-04-17T12:12:24.947Z,40.40
2023-04-17T12:14:52.601Z,40.73
2023-04-17T12:17:19.966Z,40.01
2023-04-17T12:19:47.345Z,40.09
2023-04-17T12:22:14.942Z,38.76
2023-04-17T12:24:42.299Z,39.58
2023-04-17T12:27:09.728Z,39.60
2023-04-17T12:32:10.822Z,38.93
2023-04-17T12:34:38.763Z,39.34
2023-04-17T12:37:06.388Z,37.95
2023-04-17T12:39:33.741Z,40.22
2023-04-17T12:42:01.344Z,39.95
2023-04-17T12:44:28.767Z,39.13
2023-04-17T12:46:56.221Z,40.01
2023-04-17T12:49:23.964Z,39.96
2023-04-17T12:51:53.392Z,39.30
2023-04-17T12:54:20.721Z,40.54
2023-04-17T12:56:48.420Z,39.98
2023-04-17T12:59:16.219Z,37.87
2023-04-17T13:01:43.663Z,37.39
2023-04-17T13:04:11.800Z,37.80
2023-04-17T13:06:39.573Z,36.35
2023-04-17T13:09:07.176Z,38.27
2023-04-17T13:11:34.776Z,37.09
2023-04-17T13:14:02.145Z,36.64
2023-04-17T13:16:29.491Z,37.58
2023-04-17T13:18:57.138Z,36.58
2023-04-17T13:21:24.742Z,36.97
2023-04-17T13:23:52.166Z,36.77
2023-04-17T13:26:20.580Z,37.95
2023-04-17T13:28:47.966Z,36.37
2023-04-17T13:31:15.647Z,37.27
2023-04-17T13:33:44.667Z,36.46
2023-04-17T13:36:12.208Z,37.76
2023-04-17T13:38:39.672Z,37.72
2023-04-17T13:41:07.270Z,37.36
2023-04-17T13:43:34.715Z,37.09
2023-04-17T13:46:02.163Z,37.18
2023-04-17T13:48:29.919Z,36.80
2023-04-17T13:50:57.274Z,37.82
2023-04-17T13:53:24.725Z,38.79
2023-04-17T13:55:52.461Z,40.13
2023-04-17T13:58:20.034Z,41.56
2023-04-17T14:00:47.427Z,42.68
2023-04-17T14:03:15.163Z,43.06
2023-04-17T14:05:42.689Z,44.92
2023-04-17T14:08:10.163Z,47.37
2023-04-17T14:10:37.956Z,50.60
2023-04-17T14:13:05.356Z,53.41
2023-04-17T14:15:32.858Z,53.97
2023-04-17T14:18:00.707Z,54.96
2023-04-17T14:20:28.384Z,56.28
2023-04-17T14:22:55.848Z,55.01
2023-04-17T14:25:23.555Z,54.45
2023-04-17T14:27:52.497Z,55.79
2023-04-17T14:30:20.099Z,55.71
2023-04-17T14:32:48.349Z,55.82
2023-04-17T14:35:15.909Z,57.09
2023-04-17T14:37:43.322Z,57.12
2023-04-17T14:40:11.429Z,56.64
2023-04-17T14:42:51.177Z,56.44
2023-04-17T14:45:21.661Z,52.91
2023-04-17T14:47:49.098Z,53.90
2023-04-17T14:50:16.529Z,51.53
2023-04-17T14:52:44.881Z,53.90
2023-04-17T14:55:12.528Z,51.12
2023-04-17T14:57:39.960Z,52.12
2023-04-17T15:00:08.386Z,53.37
2023-04-17T15:02:38.845Z,53.85
2023-04-17T15:05:07.649Z,50.50
2023-04-17T15:07:35.739Z,53.25
2023-04-17T15:10:05.005Z,54.84
2023-04-17T15:12:32.362Z,52.22
2023-04-17T15:15:00.197Z,52.16
2023-04-17T15:17:27.601Z,48.74
2023-04-17T15:19:57.376Z,49.52
2023-04-17T15:22:25.568Z,46.75
2023-04-17T15:24:53.167Z,48.06
2023-04-17T15:27:20.546Z,48.34
2023-04-17T15:29:48.245Z,49.41
2023-04-17T15:32:15.853Z,47.74
2023-04-17T15:34:43.281Z,47.63
2023-04-17T15:37:11.781Z,49.19
2023-04-17T15:39:39.408Z,49.02
2023-04-17T15:42:11.124Z,50.18
2023-04-17T15:44:38.779Z,49.93
2023-04-17T15:47:06.653Z,49.63
2023-04-17T15:49:34.304Z,48.55
2023-04-17T15:52:01.979Z,48.64
2023-04-17T15:54:29.335Z,49.60
2023-04-17T15:56:56.969Z,50.74
2023-04-17T15:59:24.718Z,50.26
2023-04-17T16:01:53.238Z,50.35
2023-04-17T16:04:21.155Z,49.67
2023-04-17T16:06:50.862Z,50.68
2023-04-17T16:09:20.085Z,48.97
2023-04-17T16:11:48.565Z,49.45
2023-04-17T16:14:16.307Z,54.11
2023-04-17T16:16:43.772Z,50.88
2023-04-17T16:19:11.682Z,48.52
2023-04-17T16:21:39.234Z,50.33
2023-04-17T16:24:06.642Z,50.42
2023-04-17T16:26:34.289Z,50.24
2023-04-17T16:29:01.653Z,51.00
2023-04-17T16:31:29.083Z,50.11
2023-04-17T16:33:56.773Z,50.52
2023-04-17T16:36:27.320Z,49.47
2023-04-17T16:38:54.692Z,50.61
2023-04-17T16:41:22.354Z,50.30
2023-04-17T16:43:49.737Z,50.60
2023-04-17T16:46:23.988Z,49.49
2023-04-17T16:48:59.445Z,49.99
2023-04-17T16:51:27.014Z,49.18
2023-04-17T16:53:54.425Z,49.73
2023-04-17T16:56:22.022Z,49.68
2023-04-17T16:58:49.364Z,49.59
2023-04-17T17:01:16.965Z,50.54
2023-04-17T17:03:45.176Z,49.26
2023-04-17T17:06:13.020Z,49.91
2023-04-17T17:08:43.266Z,48.98
2023-04-17T17:11:10.961Z,49.22
2023-04-17T17:13:38.329Z,48.86
2023-04-17T17:16:05.815Z,49.20
2023-04-17T17:18:33.452Z,51.80
2023-04-17T17:21:01.942Z,51.79
2023-04-17T17:23:29.403Z,49.74
2023-04-17T17:25:58.187Z,50.77
2023-04-17T17:28:27.069Z,51.40
2023-04-17T17:31:06.192Z,51.87
2023-04-17T17:33:34.609Z,52.94
2023-04-17T17:36:03.333Z,51.63
2023-04-17T17:38:32.583Z,52.65
2023-04-17T17:41:00.620Z,52.80
2023-04-17T17:43:30.040Z,53.09
2023-04-17T17:45:57.601Z,53.73
2023-04-17T17:48:25.923Z,53.91
2023-04-17T17:50:56.404Z,53.74
2023-04-17T17:53:31.486Z,54.23
2023-04-17T17:55:59.710Z,54.11
2023-04-17T17:58:27.685Z,54.13
2023-04-17T18:00:55.215Z,54.75
2023-04-17T18:03:24.088Z,54.98
2023-04-17T18:05:53.246Z,54.97
2023-04-17T18:08:21.188Z,54.87
2023-04-17T18:10:48.821Z,55.17
2023-04-17T18:13:16.680Z,54.85
2023-04-17T18:15:45.712Z,54.96
2023-04-17T18:18:16.796Z,55.55
2023-04-17T18:20:44.612Z,56.00
2023-04-17T18:23:12.365Z,56.06
2023-04-17T18:25:40.952Z,56.93
2023-04-17T18:28:10.621Z,56.49
2023-04-17T18:30:40.788Z,56.28
2023-04-17T18:33:08.920Z,55.91
2023-04-17T18:35:38.143Z,56.28
2023-04-17T18:38:06.406Z,56.92
2023-04-17T18:40:39.116Z,57.57
2023-04-17T18:43:07.145Z,57.17
2023-04-17T18:45:37.469Z,56.96
2023-04-17T18:48:06.061Z,55.44
2023-04-17T18:50:34.478Z,54.75
2023-04-17T18:53:03.560Z,55.00
2023-04-17T18:55:32.880Z,55.23
2023-04-17T18:58:04.622Z,55.51
2023-04-17T19:00:33.396Z,56.69
2023-04-17T19:03:01.342Z,54.38
2023-04-17T19:05:30.236Z,55.78
2023-04-17T19:07:58.652Z,55.20
2023-04-17T19:10:27.660Z,56.09
2023-04-17T19:12:57.516Z,54.69
2023-04-17T19:15:25.750Z,53.80
2023-04-17T19:17:53.821Z,55.24
2023-04-17T19:20:23.703Z,56.08
2023-04-17T19:22:51.727Z,55.66
2023-04-17T19:25:20.894Z,56.77
2023-04-17T19:27:49.888Z,54.62
2023-04-17T19:30:18.326Z,53.88
2023-04-17T19:32:48.980Z,53.19
2023-04-17T19:35:17.193Z,53.27
2023-04-17T19:37:46.348Z,53.57
2023-04-17T19:40:24.465Z,53.42
2023-04-17T19:42:56.537Z,52.93
2023-04-17T19:45:28.624Z,52.58
2023-04-17T19:50:39.058Z,52.32
2023-04-17T19:53:07.371Z,53.14
2023-04-17T19:55:36.775Z,51.96
2023-04-17T19:58:04.467Z,52.09
2023-04-17T20:00:32.380Z,52.34
2023-04-17T20:03:01.509Z,52.66
2023-04-17T20:05:31.018Z,53.08
2023-04-17T20:08:02.992Z,52.54
2023-04-17T20:10:30.763Z,52.70
2023-04-17T20:12:58.976Z,52.93
2023-04-17T20:15:27.396Z,53.47
2023-04-17T20:17:55.789Z,53.01
2023-04-17T20:20:23.542Z,53.05
2023-04-17T20:22:51.537Z,53.27
2023-04-17T20:25:19.852Z,53.22
2023-04-17T20:27:47.584Z,52.71
2023-04-17T20:30:15.457Z,53.75
2023-04-17T20:32:43.334Z,53.50
2023-04-17T20:35:11.191Z,53.12
2023-04-17T20:37:41.030Z,52.65
2023-04-17T20:40:11.858Z,52.65
2023-04-17T20:42:41.220Z,53.30
2023-04-17T20:45:09.889Z,53.49
2023-04-17T20:47:46.128Z,54.01
2023-04-17T20:50:22.997Z,54.04
2023-04-17T20:52:50.615Z,53.69
2023-04-17T20:55:19.917Z,53.25
2023-04-17T20:57:48.010Z,53.09
2023-04-17T21:00:16.172Z,52.80
2023-04-17T21:02:43.926Z,52.95
2023-04-17T21:05:11.649Z,53.53
2023-04-17T21:07:39.016Z,53.18
2023-04-17T21:10:06.767Z,52.65
2023-04-17T21:12:35.352Z,53.04
2023-04-17T21:15:02.787Z,53.11
2023-04-17T21:17:31.344Z,53.34
2023-04-17T21:19:59.052Z,53.56
2023-04-17T21:22:26.414Z,53.74
2023-04-17T21:24:53.776Z,53.91
2023-04-17T21:27:22.073Z,53.42
2023-04-17T21:29:49.490Z,53.46
2023-04-17T21:32:16.878Z,54.23
2023-04-17T21:34:44.547Z,53.81
2023-04-17T21:37:11.918Z,53.75
2023-04-17T21:39:39.599Z,54.15
2023-04-17T21:42:07.247Z,54.50
2023-04-17T21:44:34.594Z,54.83
2023-04-17T21:47:03.032Z,55.34
2023-04-17T21:49:30.674Z,54.60
2023-04-17T21:51:58.562Z,54.84
2023-04-17T21:54:27.504Z,55.45
2023-04-17T21:56:55.693Z,55.33
2023-04-17T21:59:24.340Z,55.03
2023-04-17T22:01:51.818Z,56.29
2023-04-17T22:04:19.544Z,55.83
2023-04-17T22:06:46.947Z,55.39
2023-04-17T22:09:14.853Z,55.96
2023-04-17T22:11:42.504Z,55.84
2023-04-17T22:14:09.872Z,55.83
2023-04-17T22:16:37.334Z,56.18
2023-04-17T22:19:05.286Z,56.25
2023-04-17T22:21:32.774Z,56.30
2023-04-17T22:24:00.112Z,55.91
2023-04-17T22:26:27.902Z,56.57
2023-04-17T22:28:55.259Z,56.53
2023-04-17T22:31:22.702Z,56.39
2023-04-17T22:33:50.316Z,56.53
2023-04-17T22:36:17.683Z,55.92
2023-04-17T22:38:45.043Z,56.13
2023-04-17T22:41:12.663Z,56.60
2023-04-17T22:43:39.971Z,57.42
2023-04-17T22:46:07.367Z,57.08
2023-04-17T22:48:35.033Z,57.05
2023-04-17T22:51:02.563Z,57.09
2023-04-17T22:53:29.991Z,57.00
2023-04-17T22:56:01.550Z,56.27
2023-04-17T22:58:31.078Z,56.65
2023-04-17T23:00:59.048Z,56.60
2023-04-17T23:03:26.746Z,56.78
2023-04-17T23:05:54.544Z,56.18
2023-04-17T23:08:23.212Z,56.31
2023-04-17T23:11:00.653Z,55.48
2023-04-17T23:13:28.347Z,56.20
2023-04-17T23:15:55.739Z,56.17
2023-04-17T23:18:23.543Z,56.42
2023-04-17T23:20:51.181Z,56.08
2023-04-17T23:23:18.639Z,55.63
2023-04-17T23:25:46.117Z,55.35
2023-04-17T23:28:15.137Z,56.61
2023-04-17T23:30:42.513Z,56.69
2023-04-17T23:33:09.936Z,55.79
2023-04-17T23:35:37.834Z,56.38
2023-04-17T23:38:05.268Z,56.57
2023-04-17T23:40:34.724Z,56.94
2023-04-17T23:43:02.425Z,56.06
2023-04-17T23:45:29.881Z,58.59
2023-04-17T23:47:58.578Z,57.75
2023-04-17T23:50:26.292Z,57.15
2023-04-17T23:52:54.905Z,57.26
2023-04-17T23:55:22.758Z,57.66
2023-04-17T23:57:50.656Z,56.92
